createdAt,value
2022-12-04T00:00:01.001Z,79.97
2022-12-04T00:02:27.712Z,86.40
2022-12-04T00:04:54.583Z,88.45
2022-12-04T00:07:21.253Z,82.50
2022-12-04T00:09:47.907Z,81.47
2022-12-04T00:12:14.629Z,83.45
2022-12-04T00:15:16.551Z,87.07
2022-12-04T00:17:28.092Z,87.30
2022-12-04T00:19:55.064Z,87.15
2022-12-04T00:22:21.945Z,80.18
2022-12-04T00:24:48.768Z,88.65
2022-12-04T00:27:15.531Z,85.55
2022-12-04T00:29:42.254Z,76.82
2022-12-04T00:32:09.529Z,87.35
2022-12-04T00:34:36.229Z,85.38
2022-12-04T00:37:02.915Z,82.97
2022-12-04T00:39:29.725Z,86.30
2022-12-04T00:41:56.517Z,79.32
2022-12-04T00:44:23.154Z,88.90
2022-12-04T00:46:49.830Z,82.10
2022-12-04T00:49:16.482Z,84.63
2022-12-04T00:51:43.217Z,82.35
2022-12-04T00:54:09.908Z,83.57
2022-12-04T00:56:36.613Z,84.28
2022-12-04T00:59:03.711Z,85.65
2022-12-04T01:01:31.033Z,90.35
2022-12-04T01:03:57.880Z,86.82
2022-12-04T01:06:30.396Z,88.18
2022-12-04T01:08:58.031Z,86.75
2022-12-04T01:11:26.607Z,89.13
2022-12-04T01:13:53.374Z,93.20
2022-12-04T01:16:21.876Z,86.03
2022-12-04T01:18:49.193Z,83.63
2022-12-04T01:21:16.676Z,82.38
2022-12-04T01:23:44.240Z,86.43
2022-12-04T01:26:11.365Z,98.97
2022-12-04T01:28:39.076Z,90.15
2022-12-04T01:31:11.151Z,94.78
2022-12-04T01:33:38.375Z,92.00
2022-12-04T01:36:07.453Z,92.32
2022-12-04T01:38:35.413Z,100.32
2022-12-04T01:41:02.907Z,96.32
2022-12-04T01:43:32.009Z,92.10
2022-12-04T01:46:00.514Z,88.57
2022-12-04T01:48:41.850Z,91.03
2022-12-04T01:51:15.653Z,93.50
2022-12-04T01:53:44.568Z,92.80
2022-12-04T01:56:11.578Z,95.55
2022-12-04T01:58:42.206Z,93.22
2022-12-04T02:01:09.650Z,94.70
2022-12-04T02:03:37.450Z,97.72
2022-12-04T02:06:04.327Z,94.28
2022-12-04T02:08:31.210Z,95.93
2022-12-04T02:11:13.138Z,88.38
2022-12-04T02:13:52.864Z,91.65
2022-12-04T02:16:55.014Z,95.10
2022-12-04T02:19:30.995Z,94.45
2022-12-04T02:22:00.236Z,93.75
2022-12-04T02:24:48.402Z,96.68
2022-12-04T02:27:22.622Z,94.97
2022-12-04T02:30:01.665Z,87.30
2022-12-04T02:32:38.693Z,93.35
2022-12-04T02:35:10.985Z,96.20
2022-12-04T02:37:40.325Z,96.80
2022-12-04T02:40:19.611Z,90.38
2022-12-04T02:43:01.893Z,98.82
2022-12-04T02:45:33.672Z,85.78
2022-12-04T02:48:02.577Z,97.78
2022-12-04T02:50:30.352Z,91.00
2022-12-04T02:53:25.014Z,88.82
2022-12-04T02:55:55.697Z,90.05
2022-12-04T02:58:29.767Z,87.55
2022-12-04T03:00:58.313Z,89.32
2022-12-04T03:03:27.637Z,89.88
2022-12-04T03:06:03.340Z,90.72
2022-12-04T03:08:35.067Z,89.95
2022-12-04T03:11:02.077Z,87.75
2022-12-04T03:13:46.965Z,90.95
2022-12-04T03:16:17.901Z,90.63
2022-12-04T03:18:51.896Z,98.93
2022-12-04T03:21:21.506Z,94.07
2022-12-04T03:23:53.951Z,92.22
2022-12-04T03:26:39.003Z,93.20
2022-12-04T03:29:08.362Z,82.80
2022-12-04T03:32:00.081Z,90.15
2022-12-04T03:34:33.954Z,93.78
2022-12-04T03:37:04.691Z,97.05
2022-12-04T03:39:38.131Z,97.03
2022-12-04T03:42:09.325Z,95.18
2022-12-04T03:44:41.645Z,103.15
2022-12-04T03:47:13.598Z,97.78
2022-12-04T03:49:52.389Z,100.78
2022-12-04T03:52:30.351Z,89.80
2022-12-04T03:55:06.852Z,101.28
2022-12-04T03:57:38.038Z,102.13
2022-12-04T04:00:14.031Z,94.20
2022-12-04T04:02:44.559Z,93.18
2022-12-04T04:05:12.405Z,95.28
2022-12-04T04:07:46.355Z,95.05
2022-12-04T04:10:17.129Z,101.85
2022-12-04T04:13:11.172Z,101.20
2022-12-04T04:16:02.308Z,94.95
2022-12-04T04:18:49.192Z,101.25
2022-12-04T04:21:37.963Z,96.18
2022-12-04T04:24:14.695Z,102.10
2022-12-04T04:26:49.043Z,92.60
2022-12-04T04:29:15.772Z,97.40
2022-12-04T04:31:43.758Z,96.60
2022-12-04T04:34:24.827Z,89.05
2022-12-04T04:36:59.509Z,95.70
2022-12-04T04:39:58.340Z,90.95
2022-12-04T04:42:31.091Z,96.72
2022-12-04T04:45:16.183Z,96.43
2022-12-04T04:47:48.916Z,88.13
2022-12-04T04:50:16.490Z,91.15
2022-12-04T04:52:48.627Z,93.35
2022-12-04T04:55:16.784Z,90.93
2022-12-04T04:57:43.920Z,93.97
2022-12-04T05:00:17.079Z,90.38
2022-12-04T05:02:44.929Z,92.32
2022-12-04T05:05:12.788Z,88.32
2022-12-04T05:07:39.619Z,95.63
2022-12-04T05:10:07.046Z,90.18
2022-12-04T05:12:33.681Z,90.40
2022-12-04T05:15:00.457Z,88.90
2022-12-04T05:17:27.095Z,94.55
2022-12-04T05:19:54.382Z,92.05
2022-12-04T05:22:27.068Z,85.85
2022-12-04T05:24:54.185Z,89.28
2022-12-04T05:27:21.863Z,94.18
2022-12-04T05:29:48.769Z,91.15
2022-12-04T05:32:15.667Z,88.85
2022-12-04T05:34:42.543Z,93.32
2022-12-04T05:37:09.183Z,93.75
2022-12-04T05:39:35.928Z,90.28
2022-12-04T05:42:02.680Z,97.75
2022-12-04T05:44:29.336Z,92.07
2022-12-04T05:46:56.072Z,97.75
2022-12-04T05:49:22.844Z,90.53
2022-12-04T05:51:50.733Z,86.05
2022-12-04T05:54:19.073Z,93.85
2022-12-04T05:56:46.148Z,86.82
2022-12-04T05:59:12.824Z,93.35
2022-12-04T06:01:39.465Z,92.43
2022-12-04T06:04:06.145Z,90.68
2022-12-04T06:06:32.963Z,94.05
2022-12-04T06:09:00.782Z,86.07
2022-12-04T06:11:29.490Z,86.53
2022-12-04T06:13:56.823Z,84.68
2022-12-04T06:16:29.293Z,96.50
2022-12-04T06:18:58.785Z,91.80
2022-12-04T06:21:27.850Z,91.10
2022-12-04T06:23:55.113Z,90.53
2022-12-04T06:26:22.822Z,93.32
2022-12-04T06:28:49.487Z,87.97
2022-12-04T06:31:17.409Z,94.75
2022-12-04T06:33:44.073Z,87.25
2022-12-04T06:36:13.279Z,89.32
2022-12-04T06:38:40.596Z,88.95
2022-12-04T06:41:09.060Z,89.90
2022-12-04T06:43:35.708Z,94.22
2022-12-04T06:46:06.503Z,92.88
2022-12-04T06:48:33.954Z,93.00
2022-12-04T06:51:09.332Z,91.00
2022-12-04T06:53:36.182Z,91.93
2022-12-04T06:56:09.076Z,84.60
2022-12-04T06:58:35.822Z,88.68
2022-12-04T07:01:12.518Z,95.20
2022-12-04T07:03:39.513Z,89.93
2022-12-04T07:06:12.976Z,86.75
2022-12-04T07:08:39.745Z,84.43
2022-12-04T07:11:06.600Z,93.13
2022-12-04T07:13:33.624Z,87.13
2022-12-04T07:16:02.831Z,84.75
2022-12-04T07:18:30.962Z,91.82
2022-12-04T07:20:57.768Z,87.07
2022-12-04T07:23:25.036Z,82.50
2022-12-04T07:25:52.313Z,82.20
2022-12-04T07:28:19.028Z,90.13
2022-12-04T07:30:45.871Z,86.53
2022-12-04T07:33:13.979Z,88.88
2022-12-04T07:35:40.708Z,87.22
2022-12-04T07:38:07.654Z,87.88
2022-12-04T07:40:34.351Z,85.07
2022-12-04T07:43:01.142Z,90.85
2022-12-04T07:45:27.913Z,85.57
2022-12-04T07:47:54.659Z,79.72
2022-12-04T07:50:21.533Z,85.32
2022-12-04T07:52:48.404Z,80.93
2022-12-04T07:55:20.123Z,85.43
2022-12-04T07:57:49.657Z,84.13
2022-12-04T08:00:16.693Z,86.50
2022-12-04T08:02:43.430Z,84.07
2022-12-04T08:05:10.474Z,85.68
2022-12-04T08:07:37.252Z,84.38
2022-12-04T08:10:04.890Z,80.20
2022-12-04T08:12:33.275Z,88.80
2022-12-04T08:14:59.990Z,83.30
2022-12-04T08:17:26.883Z,88.13
2022-12-04T08:19:53.855Z,80.35
2022-12-04T08:22:25.034Z,83.00
2022-12-04T08:24:52.194Z,82.13
2022-12-04T08:27:19.025Z,82.20
2022-12-04T08:29:45.975Z,85.65
2022-12-04T08:32:12.805Z,87.53
2022-12-04T08:34:39.720Z,80.65
2022-12-04T08:37:06.615Z,86.38
2022-12-04T08:39:33.574Z,79.88
2022-12-04T08:42:00.325Z,82.90
2022-12-04T08:44:27.337Z,84.15
2022-12-04T08:46:54.200Z,82.25
2022-12-04T08:49:21.317Z,80.60
2022-12-04T08:51:48.280Z,81.50
2022-12-04T08:54:15.161Z,79.07
2022-12-04T08:56:42.099Z,81.90
2022-12-04T08:59:12.429Z,81.00
2022-12-04T09:01:39.655Z,88.82
2022-12-04T09:04:06.598Z,82.13
2022-12-04T09:06:33.412Z,82.53
2022-12-04T09:09:01.646Z,80.35
2022-12-04T09:11:29.845Z,79.80
2022-12-04T09:13:56.561Z,85.35
2022-12-04T09:16:24.969Z,76.15
2022-12-04T09:18:52.159Z,84.63
2022-12-04T09:21:20.557Z,84.97
2022-12-04T09:23:47.849Z,78.22
2022-12-04T09:26:32.424Z,81.68
2022-12-04T09:29:01.077Z,80.63
2022-12-04T09:31:28.451Z,84.00
2022-12-04T09:33:55.302Z,91.72
2022-12-04T09:36:22.550Z,83.65
2022-12-04T09:38:50.986Z,81.70
2022-12-04T09:41:36.520Z,83.70
2022-12-04T09:44:06.975Z,84.15
2022-12-04T09:46:38.154Z,81.47
2022-12-04T09:49:15.835Z,85.43
2022-12-04T09:51:42.874Z,88.18
2022-12-04T09:54:18.395Z,81.22
2022-12-04T09:56:51.183Z,117.75
2022-12-04T09:59:23.400Z,153.07
2022-12-04T10:02:16.681Z,136.35
2022-12-04T10:04:43.504Z,104.40
2022-12-04T10:07:21.897Z,87.65
2022-12-04T10:10:10.941Z,86.43
2022-12-04T10:12:55.696Z,88.10
2022-12-04T10:15:26.486Z,92.15
2022-12-04T10:18:15.391Z,93.53
2022-12-04T10:20:59.030Z,85.85
2022-12-04T10:23:53.112Z,79.72
2022-12-04T10:26:31.130Z,83.18
2022-12-04T10:29:03.906Z,82.80
2022-12-04T10:31:31.684Z,76.03
2022-12-04T10:34:06.172Z,84.68
2022-12-04T10:36:35.015Z,78.95
2022-12-04T10:39:16.767Z,83.70
2022-12-04T10:41:47.279Z,84.70
2022-12-04T10:44:17.074Z,84.88
2022-12-04T10:46:46.382Z,82.32
2022-12-04T10:49:24.435Z,77.78
2022-12-04T10:51:52.056Z,73.97
2022-12-04T10:54:24.438Z,75.88
2022-12-04T10:56:59.686Z,79.10
2022-12-04T10:59:27.262Z,78.68
2022-12-04T11:02:06.653Z,74.68
2022-12-04T11:04:35.351Z,77.75
2022-12-04T11:07:05.196Z,76.53
2022-12-04T11:09:32.770Z,72.85
2022-12-04T11:12:18.705Z,82.68
2022-12-04T11:14:47.402Z,74.53
2022-12-04T11:17:19.543Z,76.85
2022-12-04T11:19:47.455Z,74.88
2022-12-04T11:22:16.839Z,74.55
2022-12-04T11:24:43.848Z,74.15
2022-12-04T11:27:21.489Z,73.53
2022-12-04T11:29:50.412Z,75.75
2022-12-04T11:32:22.548Z,75.00
2022-12-04T11:34:52.079Z,75.70
2022-12-04T11:37:22.525Z,76.20
2022-12-04T11:39:50.254Z,75.35
2022-12-04T11:42:25.774Z,71.90
2022-12-04T11:44:55.941Z,78.35
2022-12-04T11:47:26.478Z,73.03
2022-12-04T11:50:14.423Z,69.20
2022-12-04T11:53:02.864Z,73.53
2022-12-04T11:55:43.735Z,70.20
2022-12-04T11:58:29.434Z,68.93
2022-12-04T12:00:59.374Z,72.43
2022-12-04T12:03:59.665Z,72.03
2022-12-04T12:06:35.697Z,70.65
2022-12-04T12:09:27.488Z,67.88
2022-12-04T12:12:42.617Z,71.97
2022-12-04T12:15:34.104Z,70.25
2022-12-04T12:18:37.719Z,65.93
2022-12-04T12:21:10.648Z,68.95
2022-12-04T12:23:44.006Z,66.82
2022-12-04T12:26:18.993Z,72.00
2022-12-04T12:29:10.460Z,72.07
2022-12-04T12:31:43.225Z,69.67
2022-12-04T12:34:38.607Z,66.60
2022-12-04T12:37:12.845Z,61.13
2022-12-04T12:39:41.804Z,65.10
2022-12-04T12:42:17.925Z,64.55
2022-12-04T12:45:03.365Z,62.97
2022-12-04T12:47:37.017Z,62.17
2022-12-04T12:50:09.949Z,61.30
2022-12-04T12:53:01.579Z,61.90
2022-12-04T12:55:36.347Z,59.55
2022-12-04T12:58:29.745Z,66.00
2022-12-04T13:01:05.308Z,63.83
2022-12-04T13:03:41.342Z,68.13
2022-12-04T13:06:13.929Z,63.60
2022-12-04T13:08:53.009Z,61.30
2022-12-04T13:11:24.691Z,63.58
2022-12-04T13:13:57.318Z,60.70
2022-12-04T13:16:27.605Z,63.60
2022-12-04T13:19:13.421Z,65.30
2022-12-04T13:22:19.048Z,63.83
2022-12-04T13:25:05.180Z,67.32
2022-12-04T13:27:50.503Z,66.13
2022-12-04T13:30:21.895Z,60.60
2022-12-04T13:33:03.497Z,66.40
2022-12-04T13:35:56.863Z,70.00
2022-12-04T13:38:58.114Z,65.18
2022-12-04T13:41:26.768Z,58.58
2022-12-04T13:43:55.682Z,66.88
2022-12-04T13:46:27.902Z,68.47
2022-12-04T13:48:55.867Z,63.38
2022-12-04T13:51:40.805Z,63.45
2022-12-04T13:54:13.562Z,63.03
2022-12-04T13:56:42.834Z,66.75
2022-12-04T13:59:28.289Z,65.40
2022-12-04T14:01:58.031Z,65.13
2022-12-04T14:04:30.297Z,67.25
2022-12-04T14:06:59.838Z,71.78
2022-12-04T14:09:33.689Z,65.88
2022-12-04T14:12:02.655Z,60.80
2022-12-04T14:14:36.912Z,67.03
2022-12-04T14:17:04.739Z,68.65
2022-12-04T14:19:35.959Z,72.30
2022-12-04T14:22:03.774Z,65.75
2022-12-04T14:24:38.550Z,65.70
2022-12-04T14:28:00.382Z,73.72
2022-12-04T14:30:48.086Z,71.53
2022-12-04T14:33:21.784Z,79.60
2022-12-04T14:35:53.826Z,71.55
2022-12-04T14:38:21.819Z,75.20
2022-12-04T14:40:50.996Z,72.95
2022-12-04T14:43:20.589Z,82.30
2022-12-04T14:46:01.594Z,87.88
2022-12-04T14:48:49.065Z,79.88
2022-12-04T14:51:23.155Z,93.00
2022-12-04T14:54:17.845Z,99.57
2022-12-04T14:56:52.372Z,98.93
2022-12-04T14:59:25.475Z,113.45
2022-12-04T15:01:59.732Z,96.22
2022-12-04T15:04:29.790Z,96.35
2022-12-04T15:07:00.352Z,88.72
2022-12-04T15:09:47.195Z,103.78
2022-12-04T15:12:35.738Z,98.50
2022-12-04T15:15:05.351Z,93.28
2022-12-04T15:17:32.218Z,94.63
2022-12-04T15:20:11.704Z,81.60
2022-12-04T15:22:38.969Z,79.20
2022-12-04T15:25:06.361Z,78.68
2022-12-04T15:27:33.349Z,82.10
2022-12-04T15:30:01.224Z,83.60
2022-12-04T15:32:31.351Z,80.15
2022-12-04T15:35:05.236Z,91.30
2022-12-04T15:37:32.970Z,78.50
2022-12-04T15:40:00.069Z,77.10
2022-12-04T15:42:29.994Z,86.20
2022-12-04T15:45:01.446Z,95.20
2022-12-04T15:47:36.687Z,88.18
2022-12-04T15:50:09.324Z,88.88
2022-12-04T15:52:36.659Z,87.32
2022-12-04T15:55:07.948Z,108.95
2022-12-04T15:57:37.192Z,97.63
2022-12-04T16:00:06.882Z,128.27
2022-12-04T16:02:41.089Z,121.78
2022-12-04T16:05:35.159Z,120.55
2022-12-04T16:08:24.762Z,95.45
2022-12-04T16:11:18.108Z,82.00
2022-12-04T16:13:45.097Z,92.78
2022-12-04T16:16:15.798Z,96.78
2022-12-04T16:18:43.473Z,97.70
2022-12-04T16:21:17.686Z,102.20
2022-12-04T16:23:44.657Z,108.22
2022-12-04T16:26:13.350Z,101.93
2022-12-04T16:28:41.157Z,103.90
2022-12-04T16:31:10.939Z,110.60
2022-12-04T16:33:37.976Z,102.78
2022-12-04T16:36:04.924Z,110.47
2022-12-04T16:38:31.951Z,104.53
2022-12-04T16:40:58.868Z,125.80
2022-12-04T16:43:25.817Z,140.23
2022-12-04T16:45:54.233Z,100.05
2022-12-04T16:48:21.330Z,105.43
2022-12-04T16:50:48.397Z,121.68
2022-12-04T16:53:17.504Z,109.03
2022-12-04T16:55:47.055Z,103.22
2022-12-04T16:58:13.984Z,114.03
2022-12-04T17:00:43.720Z,124.25
2022-12-04T17:03:19.228Z,111.72
2022-12-04T17:05:46.370Z,104.82
2022-12-04T17:08:13.441Z,117.38
2022-12-04T17:10:40.325Z,113.50
2022-12-04T17:13:07.075Z,247.25
2022-12-04T17:15:34.159Z,174.40
2022-12-04T17:18:04.701Z,127.75
2022-12-04T17:20:34.213Z,144.85
2022-12-04T17:23:00.944Z,124.13
2022-12-04T17:25:28.035Z,123.47
2022-12-04T17:27:54.753Z,111.93
2022-12-04T17:30:21.462Z,142.20
2022-12-04T17:32:49.363Z,118.72
2022-12-04T17:35:16.175Z,140.60
2022-12-04T17:37:43.105Z,127.95
2022-12-04T17:40:11.333Z,119.68
2022-12-04T17:42:37.977Z,119.43
2022-12-04T17:45:05.341Z,112.07
2022-12-04T17:47:32.222Z,125.60
2022-12-04T17:49:59.045Z,165.50
2022-12-04T17:52:25.792Z,137.82
2022-12-04T17:54:52.598Z,112.45
2022-12-04T17:57:19.840Z,121.78
2022-12-04T17:59:46.808Z,143.82
2022-12-04T18:02:13.683Z,157.88
2022-12-04T18:04:40.763Z,126.13
2022-12-04T18:07:08.075Z,178.10
2022-12-04T18:09:35.143Z,129.98
2022-12-04T18:12:02.229Z,123.80
2022-12-04T18:14:29.920Z,150.07
2022-12-04T18:16:57.874Z,119.28
2022-12-04T18:19:27.350Z,121.57
2022-12-04T18:21:55.084Z,131.93
2022-12-04T18:24:23.131Z,127.20
2022-12-04T18:26:50.892Z,126.60
2022-12-04T18:29:20.749Z,144.77
2022-12-04T18:31:48.725Z,208.80
2022-12-04T18:34:15.984Z,131.43
2022-12-04T18:36:45.643Z,114.97
2022-12-04T18:39:16.433Z,121.85
2022-12-04T18:41:43.476Z,123.70
2022-12-04T18:44:11.323Z,160.30
2022-12-04T18:46:38.397Z,137.80
2022-12-04T18:49:05.411Z,108.45
2022-12-04T18:51:34.821Z,130.82
2022-12-04T18:54:08.675Z,122.60
2022-12-04T18:56:35.917Z,116.30
2022-12-04T18:59:16.917Z,108.32
2022-12-04T19:01:44.239Z,116.63
2022-12-04T19:04:12.566Z,133.85
2022-12-04T19:06:45.216Z,126.68
2022-12-04T19:09:15.078Z,108.95
2022-12-04T19:11:41.985Z,111.95
2022-12-04T19:14:20.784Z,110.25
2022-12-04T19:16:50.172Z,115.15
2022-12-04T19:19:17.257Z,126.90
2022-12-04T19:21:44.595Z,110.32
2022-12-04T19:24:11.682Z,114.45
2022-12-04T19:26:39.116Z,111.93
2022-12-04T19:29:07.030Z,115.57
2022-12-04T19:31:36.369Z,114.13
2022-12-04T19:34:06.314Z,121.97
2022-12-04T19:36:34.728Z,100.03
2022-12-04T19:39:02.059Z,106.30
2022-12-04T19:41:30.911Z,111.65
2022-12-04T19:43:59.814Z,114.78
2022-12-04T19:46:29.229Z,127.65
2022-12-04T19:49:01.672Z,116.97
2022-12-04T19:51:32.141Z,131.13
2022-12-04T19:54:00.998Z,150.63
2022-12-04T19:56:29.415Z,165.35
2022-12-04T19:58:59.315Z,142.73
2022-12-04T20:01:29.533Z,129.45
2022-12-04T20:03:56.910Z,131.77
2022-12-04T20:06:27.473Z,150.75
2022-12-04T20:08:57.774Z,107.32
2022-12-04T20:11:25.212Z,94.85
2022-12-04T20:13:55.683Z,98.30
2022-12-04T20:16:27.756Z,104.00
2022-12-04T20:18:54.982Z,100.28
2022-12-04T20:21:26.381Z,103.90
2022-12-04T20:23:54.486Z,92.60
2022-12-04T20:26:28.155Z,107.13
2022-12-04T20:28:56.633Z,106.75
2022-12-04T20:31:28.735Z,97.55
2022-12-04T20:33:59.978Z,101.70
2022-12-04T20:36:28.328Z,103.72
2022-12-04T20:38:58.738Z,114.00
2022-12-04T20:41:27.952Z,96.70
2022-12-04T20:43:55.774Z,95.57
2022-12-04T20:46:24.905Z,91.95
2022-12-04T20:48:53.763Z,90.43
2022-12-04T20:51:25.592Z,107.47
2022-12-04T20:53:54.419Z,100.25
2022-12-04T20:56:26.060Z,92.85
2022-12-04T20:58:54.136Z,98.78
2022-12-04T21:01:21.029Z,93.25
2022-12-04T21:03:47.886Z,95.57
2022-12-04T21:06:20.247Z,97.97
2022-12-04T21:08:54.151Z,90.95
2022-12-04T21:11:42.321Z,93.88
2022-12-04T21:14:34.655Z,126.28
2022-12-04T21:17:02.207Z,122.18
2022-12-04T21:19:29.342Z,187.00
2022-12-04T21:21:56.470Z,246.48
2022-12-04T21:24:24.401Z,199.18
2022-12-04T21:26:51.248Z,195.20
2022-12-04T21:29:19.311Z,320.20
2022-12-04T21:31:48.595Z,333.20
2022-12-04T21:34:17.091Z,188.27
2022-12-04T21:36:44.178Z,156.07
2022-12-04T21:39:11.088Z,105.75
2022-12-04T21:41:56.430Z,108.18
2022-12-04T21:44:23.294Z,99.68
2022-12-04T21:46:50.451Z,95.80
2022-12-04T21:49:18.377Z,93.40
2022-12-04T21:51:57.301Z,102.43
2022-12-04T21:54:26.457Z,97.05
2022-12-04T21:56:53.129Z,93.18
2022-12-04T21:59:19.942Z,96.72
2022-12-04T22:01:46.732Z,89.07
2022-12-04T22:04:13.765Z,100.13
2022-12-04T22:06:40.764Z,90.13
2022-12-04T22:09:09.002Z,85.25
2022-12-04T22:11:36.435Z,93.65
2022-12-04T22:14:03.517Z,92.93
2022-12-04T22:16:31.330Z,96.43
2022-12-04T22:19:00.270Z,90.35
2022-12-04T22:21:28.136Z,94.35
2022-12-04T22:23:59.416Z,93.50
2022-12-04T22:26:27.594Z,89.80
2022-12-04T22:28:54.618Z,89.07
2022-12-04T22:31:27.669Z,91.20
2022-12-04T22:33:56.540Z,96.80
2022-12-04T22:36:26.362Z,90.82
2022-12-04T22:39:10.535Z,95.70
2022-12-04T22:41:38.529Z,94.65
2022-12-04T22:44:06.255Z,94.38
2022-12-04T22:46:33.740Z,101.82
2022-12-04T22:49:00.768Z,96.05
2022-12-04T22:51:28.277Z,99.35
2022-12-04T22:53:57.441Z,93.40
2022-12-04T22:56:31.715Z,97.10
2022-12-04T22:58:59.696Z,89.18
2022-12-04T23:01:31.989Z,97.93
2022-12-04T23:03:59.376Z,100.72
2022-12-04T23:06:28.202Z,98.00
2022-12-04T23:09:06.692Z,95.60
2022-12-04T23:11:33.677Z,95.22
2022-12-04T23:14:02.469Z,97.75
2022-12-04T23:16:30.888Z,95.40
2022-12-04T23:18:58.182Z,100.88
2022-12-04T23:21:25.238Z,100.80
2022-12-04T23:23:53.504Z,100.32
2022-12-04T23:26:23.474Z,93.43
2022-12-04T23:28:50.115Z,113.35
2022-12-04T23:31:17.026Z,101.07
2022-12-04T23:33:43.856Z,96.68
2022-12-04T23:36:11.749Z,97.18
2022-12-04T23:38:39.641Z,99.30
2022-12-04T23:41:16.561Z,98.60
2022-12-04T23:43:44.225Z,96.63
2022-12-04T23:46:13.040Z,99.45
2022-12-04T23:48:40.447Z,98.60
2022-12-04T23:51:07.943Z,103.88
2022-12-04T23:53:34.969Z,95.88
2022-12-04T23:56:28.097Z,106.00
2022-12-04T23:58:56.757Z,104.90
